CPX261 Details

Departure: Kansas City International Airport (KMCI)
Arrival: General Edward Lawrence Logan International Airport (KBOS) at N/A
Route: LAKES2 SPI ROD KLYNE Q29 JHW Q82 PONCT JFUND2
Notes: METROAIR CARGO SUPPORT


Current Weather Information
KMCI 230753Z 20007KT 10SM SCT120 07/02 A2989 RMK AO2 SLP122 T00720022
KBOS 230754Z 07004KT 1SM R04R/5500VP6000FT -RA BR OVC004 15/13 A2977 RMK AO2 SFC VIS 1 1/2 RAB0656 SLP080 P0003 T01500133 $